FYGA4: White River At Fayetteville, AR

                                SHEF ID:       FYGA4     White River near Fayetteville, A
STATION TYPE: Stream Gauge

PRECIP STAGE RIV-FLOW WTR-TEMP DIS-OXY PH CONDUCT BAT-LOAD
in ft cfs F mg/l su umho/cm volt
Ccp-Rev Ccp-Rev Ccp-Rev Ccp-Rev Ccp-Rev Ccp-Rev Ccp-Rev Ccp-Rev
(America/Chicago)
12/04 00:00 0.00 2.50 139 44.20 11.02 7.54 118 12.65
12/04 01:00 0.00 2.49 137 44.13 11.01 7.54 118 12.65
12/04 02:00 0.00 2.50 139 44.04 11.02 7.54 117 12.57
12/04 03:00 0.00 2.50 139 43.97 11.03 7.54 117 12.57
12/04 04:00 0.00 2.50 139 43.92 11.03 7.53 116 12.57
12/04 05:00 0.00 2.50 139 43.84 11.02 7.52 115 12.57
12/04 06:00 0.00 2.50 139 43.77 11.01 7.53 117 12.49
12/04 07:00 0.00 2.49 137 43.68 11.01 7.53 116 12.49
12/04 08:00 0.00 2.49 137 43.65 11.04 7.52 116 12.49
12/04 09:00 0.00 2.48 134 43.59 11.11 7.53 116 12.41
12/04 10:00 0.00 2.48 134 43.72 11.31 7.55 116 12.57
12/04 11:00 0.00 2.48 134 43.90 11.48 7.60 115 13.37
12/04 12:00 0.00 2.48 134 44.20 11.61 7.63 115 13.44
12/04 13:00 0.00 2.48 134 44.83 11.66 7.66 115 13.53
12/04 14:00 0.00 2.46 129 45.28 11.72 7.68 115 14.08
12/04 15:00 0.00 2.47 132 45.27 11.65 7.67 114 13.21
12/04 16:00 0.00 2.47 132 45.00 11.55 7.67 113 13.13
12/04 17:00 0.00 2.46 129 44.55 11.41 7.63 113 13.05
12/04 18:00 0.00 2.47 132 44.08 11.26 7.61 113 12.81
12/04 19:00 0.00 2.47 132 43.68 11.19 7.57 112 12.73
12/04 20:00 0.00 2.47 132 43.39 11.18 7.57 112 12.65
12/04 21:00 0.00 2.47 132 43.20 11.18 7.53 111 12.65
12/04 22:00 0.00 2.46 129 43.00 11.17 7.53 110 12.65
12/04 23:00 0.00 2.46 129 42.78 11.19 7.51 110 12.57
Data processed at Fri 05Dec2025 05:10 GMT

NOTICE: If you are parsing this page

Please convert to using our Data API. Starting January 1st, 2026 we will be migrating to: https://water.usace.army.mil with modern pages rendered in JavaScript. You will no longer be able to scrape this page! CWMSDataAPI (CDA)

Timeseries IDs (TSIDs)

TSIDs used from left to right in the data table
FAYE.Precip-Inc.Total.1Hour.1Hour.Ccp-Rev
FAYE.Stage.Inst.1Hour.0.Ccp-Rev
FAYE.Flow.Inst.1Hour.0.Ccp-Rev
FAYE.Temp-Water.Inst.1Hour.0.Ccp-Rev
FAYE.Conc-DO.Inst.1Hour.0.Ccp-Rev
FAYE.pH.Inst.1Hour.0.Ccp-Rev
FAYE.Cond-Water.Inst.1Hour.0.Ccp-Rev
FAYE.Volt-Battery Load.Inst.1Hour.0.Ccp-Rev

                            

All information presented herein is the property of the government of the United States of America and may be revised or deleted at any time without prior notice. Dissemination of this information without the expressed written consent of the Public Affairs Office, Tulsa District U.S. Army Corps of Engineers is strictly prohibited. These data are gathered electronically and, as presented, have NOT undergone any form of quality control. These data are NOT guaranteed to be valid or correct.